sensor_id;sensor_type;location;lat;lon;timestamp;pressure;altitude;pressure_sealevel;temperature;humidity
37648;BME280;23490;53.656;10.076;2022-08-14T00:00:52;55686.84;;;-145.95;59.99
37648;BME280;23490;53.656;10.076;2022-08-14T00:03:26;55699.09;;;-145.95;59.09
37648;BME280;23490;53.656;10.076;2022-08-14T00:05:53;55703.16;;;-145.95;59.77
37648;BME280;23490;53.656;10.076;2022-08-14T00:08:19;55699.09;;;-145.95;60.27
37648;BME280;23490;53.656;10.076;2022-08-14T00:10:44;55713.38;;;-145.95;60.22
37648;BME280;23490;53.656;10.076;2022-08-14T00:13:10;55743.94;;;-145.95;60.00
37648;BME280;23490;53.656;10.076;2022-08-14T00:15:39;55680.75;;;-145.95;60.65
37648;BME280;23490;53.656;10.076;2022-08-14T00:18:06;55686.84;;;-145.95;60.78
37648;BME280;23490;53.656;10.076;2022-08-14T00:20:35;55686.84;;;-145.95;60.59
37648;BME280;23490;53.656;10.076;2022-08-14T00:23:04;55674.63;;;-145.95;61.28
37648;BME280;23490;53.656;10.076;2022-08-14T00:25:30;55703.16;;;-145.95;60.72
37648;BME280;23490;53.656;10.076;2022-08-14T00:27:55;55723.56;;;-145.95;60.90
37648;BME280;23490;53.656;10.076;2022-08-14T00:30:20;55695.00;;;-145.95;60.95
37648;BME280;23490;53.656;10.076;2022-08-14T00:32:46;55715.41;;;-145.95;60.78
37648;BME280;23490;53.656;10.076;2022-08-14T00:35:11;55674.63;;;-145.95;60.44
37648;BME280;23490;53.656;10.076;2022-08-14T00:37:39;55674.63;;;-145.95;61.22
37648;BME280;23490;53.656;10.076;2022-08-14T00:40:06;55688.91;;;-145.95;61.75
37648;BME280;23490;53.656;10.076;2022-08-14T00:42:32;55690.94;;;-145.95;61.90
37648;BME280;23490;53.656;10.076;2022-08-14T00:44:57;55699.09;;;-145.95;61.90
37648;BME280;23490;53.656;10.076;2022-08-14T00:47:23;55682.78;;;-145.95;61.74
37648;BME280;23490;53.656;10.076;2022-08-14T00:49:51;55731.72;;;-145.95;62.58
37648;BME280;23490;53.656;10.076;2022-08-14T00:52:18;55695.00;;;-145.95;62.28
37648;BME280;23490;53.656;10.076;2022-08-14T00:54:46;55670.53;;;-145.95;61.91
37648;BME280;23490;53.656;10.076;2022-08-14T00:57:23;55678.69;;;-145.95;61.85
37648;BME280;23490;53.656;10.076;2022-08-14T00:59:49;55678.69;;;-145.95;62.30
37648;BME280;23490;53.656;10.076;2022-08-14T01:02:17;55713.38;;;-145.95;62.23
37648;BME280;23490;53.656;10.076;2022-08-14T01:04:44;55656.28;;;-145.95;61.32
37648;BME280;23490;53.656;10.076;2022-08-14T01:07:11;55719.47;;;-145.95;60.96
37648;BME280;23490;53.656;10.076;2022-08-14T01:09:37;55699.09;;;-145.95;60.45
37648;BME280;23490;53.656;10.076;2022-08-14T01:12:04;55686.84;;;-145.95;61.33
37648;BME280;23490;53.656;10.076;2022-08-14T01:14:29;55690.94;;;-145.95;61.25
37648;BME280;23490;53.656;10.076;2022-08-14T01:16:55;55690.94;;;-145.95;60.86
37648;BME280;23490;53.656;10.076;2022-08-14T01:19:23;55739.88;;;-145.95;61.32
37648;BME280;23490;53.656;10.076;2022-08-14T01:22:09;55701.13;;;-145.95;61.01
37648;BME280;23490;53.656;10.076;2022-08-14T01:24:34;55707.25;;;-145.95;61.33
37648;BME280;23490;53.656;10.076;2022-08-14T01:27:01;55715.41;;;-145.95;61.67
37648;BME280;23490;53.656;10.076;2022-08-14T01:29:29;55690.94;;;-145.95;61.56
37648;BME280;23490;53.656;10.076;2022-08-14T01:31:56;55713.38;;;-145.95;61.75
37648;BME280;23490;53.656;10.076;2022-08-14T01:34:25;55703.16;;;-145.95;61.86
37648;BME280;23490;53.656;10.076;2022-08-14T01:36:51;55727.63;;;-145.95;61.79
37648;BME280;23490;53.656;10.076;2022-08-14T01:39:18;55715.41;;;-145.95;61.13
37648;BME280;23490;53.656;10.076;2022-08-14T01:41:48;55686.84;;;-145.95;61.66
37648;BME280;23490;53.656;10.076;2022-08-14T01:44:21;55746.00;;;-145.95;62.11
37648;BME280;23490;53.656;10.076;2022-08-14T01:46:49;55709.28;;;-145.95;61.03
37648;BME280;23490;53.656;10.076;2022-08-14T01:49:20;55729.69;;;-145.95;62.11
37648;BME280;23490;53.656;10.076;2022-08-14T01:51:46;55737.84;;;-145.95;62.80
37648;BME280;23490;53.656;10.076;2022-08-14T01:54:17;55699.09;;;-145.95;61.87
37648;BME280;23490;53.656;10.076;2022-08-14T01:56:46;55731.72;;;-145.95;62.18
37648;BME280;23490;53.656;10.076;2022-08-14T02:01:41;55678.69;;;-145.95;61.37
37648;BME280;23490;53.656;10.076;2022-08-14T02:04:08;55690.94;;;-145.95;60.90
37648;BME280;23490;53.656;10.076;2022-08-14T02:06:34;55715.41;;;-145.95;61.34
37648;BME280;23490;53.656;10.076;2022-08-14T02:09:05;55715.41;;;-145.95;60.71
37648;BME280;23490;53.656;10.076;2022-08-14T02:11:31;55733.75;;;-145.95;61.08
37648;BME280;23490;53.656;10.076;2022-08-14T02:14:06;55648.13;;;-145.95;62.55
37648;BME280;23490;53.656;10.076;2022-08-14T02:16:34;55680.75;;;-145.95;62.36
37648;BME280;23490;53.656;10.076;2022-08-14T02:19:07;55699.09;;;-145.95;62.96
37648;BME280;23490;53.656;10.076;2022-08-14T02:21:34;55699.09;;;-145.95;63.26
37648;BME280;23490;53.656;10.076;2022-08-14T02:24:01;55713.38;;;-145.95;62.53
37648;BME280;23490;53.656;10.076;2022-08-14T02:26:35;55715.41;;;-145.95;62.31
37648;BME280;23490;53.656;10.076;2022-08-14T02:29:13;55674.63;;;-145.95;63.05
37648;BME280;23490;53.656;10.076;2022-08-14T02:31:43;55721.53;;;-145.95;62.68
37648;BME280;23490;53.656;10.076;2022-08-14T02:34:13;55729.69;;;-145.95;63.38
37648;BME280;23490;53.656;10.076;2022-08-14T02:36:40;55682.78;;;-145.95;63.75
37648;BME280;23490;53.656;10.076;2022-08-14T02:39:09;55678.69;;;-145.95;63.21
37648;BME280;23490;53.656;10.076;2022-08-14T02:41:35;55668.50;;;-145.95;64.22
37648;BME280;23490;53.656;10.076;2022-08-14T02:44:03;55690.94;;;-145.95;63.27
37648;BME280;23490;53.656;10.076;2022-08-14T02:46:28;55721.53;;;-145.95;62.62
37648;BME280;23490;53.656;10.076;2022-08-14T02:48:57;55686.84;;;-145.95;63.33
37648;BME280;23490;53.656;10.076;2022-08-14T02:51:24;55731.72;;;-145.95;62.97
37648;BME280;23490;53.656;10.076;2022-08-14T02:53:49;55707.25;;;-145.95;63.91
37648;BME280;23490;53.656;10.076;2022-08-14T02:56:16;55727.63;;;-145.95;63.96
37648;BME280;23490;53.656;10.076;2022-08-14T02:58:48;55674.63;;;-145.95;64.36
37648;BME280;23490;53.656;10.076;2022-08-14T03:01:17;55727.63;;;-145.95;63.99
37648;BME280;23490;53.656;10.076;2022-08-14T03:03:43;55719.47;;;-145.95;64.13
37648;BME280;23490;53.656;10.076;2022-08-14T03:06:10;55731.72;;;-145.95;64.79
37648;BME280;23490;53.656;10.076;2022-08-14T03:08:37;55723.56;;;-145.95;67.04
37648;BME280;23490;53.656;10.076;2022-08-14T03:11:06;55731.72;;;-145.95;64.87
37648;BME280;23490;53.656;10.076;2022-08-14T03:13:34;55717.44;;;-145.95;65.04
37648;BME280;23490;53.656;10.076;2022-08-14T03:16:11;55717.44;;;-145.95;67.35
37648;BME280;23490;53.656;10.076;2022-08-14T03:18:41;55731.72;;;-145.95;68.19
37648;BME280;23490;53.656;10.076;2022-08-14T03:21:10;55731.72;;;-145.95;65.97
37648;BME280;23490;53.656;10.076;2022-08-14T03:23:41;55690.94;;;-145.95;67.17
37648;BME280;23490;53.656;10.076;2022-08-14T03:26:13;55705.22;;;-145.95;67.58
37648;BME280;23490;53.656;10.076;2022-08-14T03:28:41;55699.09;;;-145.95;67.04
37648;BME280;23490;53.656;10.076;2022-08-14T03:31:08;55682.78;;;-145.95;67.68
37648;BME280;23490;53.656;10.076;2022-08-14T03:33:36;55743.94;;;-145.95;67.42
37648;BME280;23490;53.656;10.076;2022-08-14T03:36:04;55743.94;;;-145.95;68.04
37648;BME280;23490;53.656;10.076;2022-08-14T03:38:34;55695.00;;;-145.95;67.48
37648;BME280;23490;53.656;10.076;2022-08-14T03:41:08;55686.84;;;-145.95;66.89
37648;BME280;23490;53.656;10.076;2022-08-14T03:43:39;55727.63;;;-145.95;66.20
37648;BME280;23490;53.656;10.076;2022-08-14T03:46:05;55715.41;;;-145.95;66.45
37648;BME280;23490;53.656;10.076;2022-08-14T03:48:30;55727.63;;;-145.95;66.67
37648;BME280;23490;53.656;10.076;2022-08-14T03:50:56;55743.94;;;-145.95;65.99
37648;BME280;23490;53.656;10.076;2022-08-14T03:53:21;55760.25;;;-145.95;67.15
37648;BME280;23490;53.656;10.076;2022-08-14T03:55:46;55692.97;;;-145.95;66.42
37648;BME280;23490;53.656;10.076;2022-08-14T03:58:12;55727.63;;;-145.95;68.18
37648;BME280;23490;53.656;10.076;2022-08-14T04:00:39;55739.88;;;-145.95;68.36
37648;BME280;23490;53.656;10.076;2022-08-14T04:03:07;55748.03;;;-145.95;67.50
37648;BME280;23490;53.656;10.076;2022-08-14T04:05:35;55695.00;;;-145.95;68.22
37648;BME280;23490;53.656;10.076;2022-08-14T04:08:04;55690.94;;;-145.95;66.50
37648;BME280;23490;53.656;10.076;2022-08-14T04:10:30;55731.72;;;-145.95;68.04
37648;BME280;23490;53.656;10.076;2022-08-14T04:12:55;55735.78;;;-145.95;68.36
37648;BME280;23490;53.656;10.076;2022-08-14T04:15:24;55731.72;;;-145.95;68.40
37648;BME280;23490;53.656;10.076;2022-08-14T04:17:51;55727.63;;;-145.95;67.90
37648;BME280;23490;53.656;10.076;2022-08-14T04:20:17;55723.56;;;-145.95;68.95
37648;BME280;23490;53.656;10.076;2022-08-14T04:22:42;55701.13;;;-145.95;69.88
37648;BME280;23490;53.656;10.076;2022-08-14T04:25:10;55727.63;;;-145.95;68.18
37648;BME280;23490;53.656;10.076;2022-08-14T04:27:36;55715.41;;;-145.95;67.43
37648;BME280;23490;53.656;10.076;2022-08-14T04:30:03;55719.47;;;-145.95;68.31
37648;BME280;23490;53.656;10.076;2022-08-14T04:32:29;55670.53;;;-145.95;68.85
37648;BME280;23490;53.656;10.076;2022-08-14T04:34:55;55695.00;;;-145.95;67.68
37648;BME280;23490;53.656;10.076;2022-08-14T04:37:24;55695.00;;;-145.95;67.28
37648;BME280;23490;53.656;10.076;2022-08-14T04:40:09;55682.78;;;-145.95;68.33
37648;BME280;23490;53.656;10.076;2022-08-14T04:42:54;55719.47;;;-145.95;68.81
37648;BME280;23490;53.656;10.076;2022-08-14T04:45:38;55731.72;;;-145.95;68.88
37648;BME280;23490;53.656;10.076;2022-08-14T04:48:14;55715.41;;;-145.95;69.12
37648;BME280;23490;53.656;10.076;2022-08-14T04:50:44;55717.44;;;-145.95;67.99
37648;BME280;23490;53.656;10.076;2022-08-14T04:53:13;55701.13;;;-145.95;68.44
37648;BME280;23490;53.656;10.076;2022-08-14T04:55:41;55715.41;;;-145.95;69.63
37648;BME280;23490;53.656;10.076;2022-08-14T04:58:07;55690.94;;;-145.95;68.72
37648;BME280;23490;53.656;10.076;2022-08-14T05:00:35;55678.69;;;-145.95;69.41
37648;BME280;23490;53.656;10.076;2022-08-14T05:03:00;55737.84;;;-145.95;68.99
37648;BME280;23490;53.656;10.076;2022-08-14T05:05:29;55723.56;;;-145.95;69.00
37648;BME280;23490;53.656;10.076;2022-08-14T05:07:55;55690.94;;;-145.95;70.14
37648;BME280;23490;53.656;10.076;2022-08-14T05:10:21;55707.25;;;-145.95;68.72
37648;BME280;23490;53.656;10.076;2022-08-14T05:12:49;55695.00;;;-145.95;68.93
37648;BME280;23490;53.656;10.076;2022-08-14T05:15:16;55715.41;;;-145.95;69.15
37648;BME280;23490;53.656;10.076;2022-08-14T05:17:43;55699.09;;;-145.95;69.86
37648;BME280;23490;53.656;10.076;2022-08-14T05:20:09;55729.69;;;-145.95;68.85
37648;BME280;23490;53.656;10.076;2022-08-14T05:22:34;55701.13;;;-145.95;70.04
37648;BME280;23490;53.656;10.076;2022-08-14T05:25:00;55664.44;;;-145.95;69.91
37648;BME280;23490;53.656;10.076;2022-08-14T05:27:28;55750.06;;;-145.95;70.39
37648;BME280;23490;53.656;10.076;2022-08-14T05:29:53;55764.34;;;-145.95;69.05
37648;BME280;23490;53.656;10.076;2022-08-14T05:32:20;55699.09;;;-145.95;69.85
37648;BME280;23490;53.656;10.076;2022-08-14T05:34:45;55735.78;;;-145.95;68.72
37648;BME280;23490;53.656;10.076;2022-08-14T05:37:11;55727.63;;;-145.95;68.38
37648;BME280;23490;53.656;10.076;2022-08-14T05:39:38;55737.84;;;-145.95;68.57
37648;BME280;23490;53.656;10.076;2022-08-14T05:42:05;55715.41;;;-145.95;68.33
37648;BME280;23490;53.656;10.076;2022-08-14T05:44:30;55723.56;;;-145.95;67.45
37648;BME280;23490;53.656;10.076;2022-08-14T05:46:56;55746.00;;;-145.95;68.00
37648;BME280;23490;53.656;10.076;2022-08-14T05:49:21;55707.25;;;-145.95;67.50
37648;BME280;23490;53.656;10.076;2022-08-14T05:51:47;55715.41;;;-145.95;68.78
37648;BME280;23490;53.656;10.076;2022-08-14T05:54:12;55768.41;;;-145.95;67.65
37648;BME280;23490;53.656;10.076;2022-08-14T05:56:37;55739.88;;;-145.95;66.80
37648;BME280;23490;53.656;10.076;2022-08-14T05:59:03;55727.63;;;-145.95;67.56
37648;BME280;23490;53.656;10.076;2022-08-14T06:01:29;55731.72;;;-145.95;66.06
37648;BME280;23490;53.656;10.076;2022-08-14T06:03:55;55727.63;;;-145.95;66.92
37648;BME280;23490;53.656;10.076;2022-08-14T06:06:20;55780.66;;;-145.95;65.86
37648;BME280;23490;53.656;10.076;2022-08-14T06:08:45;55768.41;;;-145.95;65.83
37648;BME280;23490;53.656;10.076;2022-08-14T06:11:11;55750.06;;;-145.95;65.10
37648;BME280;23490;53.656;10.076;2022-08-14T06:13:41;55764.34;;;-145.95;64.91
37648;BME280;23490;53.656;10.076;2022-08-14T06:16:07;55752.09;;;-145.95;64.19
37648;BME280;23490;53.656;10.076;2022-08-14T06:18:33;55727.63;;;-145.95;64.42
37648;BME280;23490;53.656;10.076;2022-08-14T06:20:59;55768.41;;;-145.95;63.78
37648;BME280;23490;53.656;10.076;2022-08-14T06:23:25;55723.56;;;-145.95;63.96
37648;BME280;23490;53.656;10.076;2022-08-14T06:25:50;55760.25;;;-145.95;63.79
37648;BME280;23490;53.656;10.076;2022-08-14T06:28:21;55780.66;;;-145.95;63.25
37648;BME280;23490;53.656;10.076;2022-08-14T06:30:47;55711.31;;;-145.95;64.35
37648;BME280;23490;53.656;10.076;2022-08-14T06:33:13;55723.56;;;-145.95;61.92
37648;BME280;23490;53.656;10.076;2022-08-14T06:35:39;55748.03;;;-145.95;62.12
37648;BME280;23490;53.656;10.076;2022-08-14T06:38:04;55764.34;;;-145.95;62.50
37648;BME280;23490;53.656;10.076;2022-08-14T06:40:35;55772.50;;;-145.95;62.05
37648;BME280;23490;53.656;10.076;2022-08-14T06:43:03;55770.47;;;-145.95;62.80
37648;BME280;23490;53.656;10.076;2022-08-14T06:45:29;55741.91;;;-145.95;63.57
37648;BME280;23490;53.656;10.076;2022-08-14T06:47:55;55743.94;;;-145.95;62.39
37648;BME280;23490;53.656;10.076;2022-08-14T06:50:22;55780.66;;;-145.95;61.89
37648;BME280;23490;53.656;10.076;2022-08-14T06:52:48;55784.72;;;-145.95;61.35
37648;BME280;23490;53.656;10.076;2022-08-14T06:55:15;55764.34;;;-145.95;61.05
37648;BME280;23490;53.656;10.076;2022-08-14T06:57:46;55743.94;;;-145.95;60.06
37648;BME280;23490;53.656;10.076;2022-08-14T07:00:25;55766.38;;;-145.95;61.07
37648;BME280;23490;53.656;10.076;2022-08-14T07:02:51;55770.47;;;-145.95;61.74
37648;BME280;23490;53.656;10.076;2022-08-14T07:05:35;55764.34;;;-145.95;60.27
37648;BME280;23490;53.656;10.076;2022-08-14T07:08:19;55707.25;;;-145.95;60.50
37648;BME280;23490;53.656;10.076;2022-08-14T07:10:50;55764.34;;;-145.95;59.37
37648;BME280;23490;53.656;10.076;2022-08-14T07:13:16;55737.84;;;-145.95;59.35
37648;BME280;23490;53.656;10.076;2022-08-14T07:15:44;55780.66;;;-145.95;59.51
37648;BME280;23490;53.656;10.076;2022-08-14T07:18:12;55780.66;;;-145.95;59.87
37648;BME280;23490;53.656;10.076;2022-08-14T07:20:41;55788.81;;;-145.95;58.56
37648;BME280;23490;53.656;10.076;2022-08-14T07:23:08;55813.28;;;-145.95;59.92
37648;BME280;23490;53.656;10.076;2022-08-14T07:25:35;55774.53;;;-145.95;60.92
37648;BME280;23490;53.656;10.076;2022-08-14T07:28:07;55776.56;;;-145.95;60.32
37648;BME280;23490;53.656;10.076;2022-08-14T07:30:33;55770.47;;;-145.95;59.69
37648;BME280;23490;53.656;10.076;2022-08-14T07:32:59;55776.56;;;-145.95;58.97
37648;BME280;23490;53.656;10.076;2022-08-14T07:35:24;55788.81;;;-145.95;59.44
37648;BME280;23490;53.656;10.076;2022-08-14T07:37:50;55794.94;;;-145.95;59.47
37648;BME280;23490;53.656;10.076;2022-08-14T07:40:16;55780.66;;;-145.95;58.74
37648;BME280;23490;53.656;10.076;2022-08-14T07:42:42;55801.03;;;-145.95;58.20
37648;BME280;23490;53.656;10.076;2022-08-14T07:45:07;55821.44;;;-145.95;57.62
37648;BME280;23490;53.656;10.076;2022-08-14T07:47:32;55760.25;;;-145.95;57.10
37648;BME280;23490;53.656;10.076;2022-08-14T07:50:10;55772.50;;;-145.95;57.81
37648;BME280;23490;53.656;10.076;2022-08-14T07:52:37;55801.03;;;-145.95;58.75
37648;BME280;23490;53.656;10.076;2022-08-14T07:55:03;55788.81;;;-145.95;55.62
37648;BME280;23490;53.656;10.076;2022-08-14T07:57:29;55792.88;;;-145.95;56.04
37648;BME280;23490;53.656;10.076;2022-08-14T07:59:54;55748.03;;;-145.95;56.26
37648;BME280;23490;53.656;10.076;2022-08-14T08:02:19;55792.88;;;-145.95;54.99
37648;BME280;23490;53.656;10.076;2022-08-14T08:04:50;55813.28;;;-145.95;55.60
37648;BME280;23490;53.656;10.076;2022-08-14T08:07:16;55780.66;;;-145.95;53.29
37648;BME280;23490;53.656;10.076;2022-08-14T08:09:43;55792.88;;;-145.95;54.02
37648;BME280;23490;53.656;10.076;2022-08-14T08:12:13;55825.53;;;-145.95;52.59
37648;BME280;23490;53.656;10.076;2022-08-14T08:14:40;55780.66;;;-145.95;52.62
37648;BME280;23490;53.656;10.076;2022-08-14T08:17:07;55784.72;;;-145.95;52.72
37648;BME280;23490;53.656;10.076;2022-08-14T08:19:33;55837.75;;;-145.95;53.12
37648;BME280;23490;53.656;10.076;2022-08-14T08:21:58;55796.97;;;-145.95;51.80
37648;BME280;23490;53.656;10.076;2022-08-14T08:24:23;55847.94;;;-145.95;50.76
37648;BME280;23490;53.656;10.076;2022-08-14T08:26:49;55770.47;;;-145.95;49.95
37648;BME280;23490;53.656;10.076;2022-08-14T08:29:19;55794.94;;;-145.95;49.86
37648;BME280;23490;53.656;10.076;2022-08-14T08:31:49;55817.34;;;-145.95;49.38
37648;BME280;23490;53.656;10.076;2022-08-14T08:34:15;55776.56;;;-145.95;49.95
37648;BME280;23490;53.656;10.076;2022-08-14T08:36:41;55833.66;;;-145.95;49.57
37648;BME280;23490;53.656;10.076;2022-08-14T08:39:07;55823.47;;;-145.95;49.24
37648;BME280;23490;53.656;10.076;2022-08-14T08:41:40;55813.28;;;-145.95;48.10
37648;BME280;23490;53.656;10.076;2022-08-14T08:44:06;55829.59;;;-145.95;48.20
37648;BME280;23490;53.656;10.076;2022-08-14T08:46:31;55803.09;;;-145.95;48.73
37648;BME280;23490;53.656;10.076;2022-08-14T08:48:57;55792.88;;;-145.95;48.24
37648;BME280;23490;53.656;10.076;2022-08-14T08:51:31;55817.34;;;-145.95;46.92
37648;BME280;23490;53.656;10.076;2022-08-14T08:54:04;55829.59;;;-145.95;49.83
37648;BME280;23490;53.656;10.076;2022-08-14T08:56:40;55825.53;;;-145.95;46.00
37648;BME280;23490;53.656;10.076;2022-08-14T09:01:55;55841.84;;;-145.95;44.94
37648;BME280;23490;53.656;10.076;2022-08-14T09:04:32;55817.34;;;-145.95;45.62
37648;BME280;23490;53.656;10.076;2022-08-14T09:06:58;55829.59;;;-145.95;43.80
37648;BME280;23490;53.656;10.076;2022-08-14T09:09:29;55850.00;;;-145.95;43.67
37648;BME280;23490;53.656;10.076;2022-08-14T09:11:56;55854.06;;;-145.95;43.09
37648;BME280;23490;53.656;10.076;2022-08-14T09:14:23;55847.94;;;-145.95;43.26
37648;BME280;23490;53.656;10.076;2022-08-14T09:16:49;55837.75;;;-145.95;43.33
37648;BME280;23490;53.656;10.076;2022-08-14T09:19:16;55829.59;;;-145.95;43.76
37648;BME280;23490;53.656;10.076;2022-08-14T09:21:42;55835.72;;;-145.95;45.17
37648;BME280;23490;53.656;10.076;2022-08-14T09:24:09;55829.59;;;-145.95;45.23
37648;BME280;23490;53.656;10.076;2022-08-14T09:26:36;55858.16;;;-145.95;45.77
37648;BME280;23490;53.656;10.076;2022-08-14T09:29:02;55854.06;;;-145.95;46.02
37648;BME280;23490;53.656;10.076;2022-08-14T09:31:28;55817.34;;;-145.95;45.77
37648;BME280;23490;53.656;10.076;2022-08-14T09:34:17;55862.22;;;-145.95;45.83
37648;BME280;23490;53.656;10.076;2022-08-14T09:36:48;55845.91;;;-145.95;46.17
37648;BME280;23490;53.656;10.076;2022-08-14T09:47:51;55845.91;;;-145.95;46.06
37648;BME280;23490;53.656;10.076;2022-08-14T09:52:50;55837.75;;;-145.95;47.09
37648;BME280;23490;53.656;10.076;2022-08-14T09:55:20;55829.59;;;-145.95;47.67
37648;BME280;23490;53.656;10.076;2022-08-14T09:57:46;55845.91;;;-145.95;47.35
37648;BME280;23490;53.656;10.076;2022-08-14T10:00:13;55852.03;;;-145.95;46.62
37648;BME280;23490;53.656;10.076;2022-08-14T10:02:50;55831.63;;;-145.95;46.75
37648;BME280;23490;53.656;10.076;2022-08-14T10:05:26;55821.44;;;-145.95;46.39
37648;BME280;23490;53.656;10.076;2022-08-14T10:07:53;55862.22;;;-145.95;46.59
37648;BME280;23490;53.656;10.076;2022-08-14T10:13:03;55837.75;;;-145.95;45.71
37648;BME280;23490;53.656;10.076;2022-08-14T10:15:31;55813.28;;;-145.95;45.34
37648;BME280;23490;53.656;10.076;2022-08-14T10:18:07;55833.66;;;-145.95;43.82
37648;BME280;23490;53.656;10.076;2022-08-14T10:20:55;55862.22;;;-145.95;43.32
37648;BME280;23490;53.656;10.076;2022-08-14T10:23:23;55854.06;;;-145.95;42.21
37648;BME280;23490;53.656;10.076;2022-08-14T10:26:05;55878.53;;;-145.95;42.45
37648;BME280;23490;53.656;10.076;2022-08-14T10:28:42;55880.56;;;-145.95;42.98
37648;BME280;23490;53.656;10.076;2022-08-14T10:31:28;55854.06;;;-145.95;41.49
37648;BME280;23490;53.656;10.076;2022-08-14T10:34:09;55850.00;;;-145.95;40.15
37648;BME280;23490;53.656;10.076;2022-08-14T10:36:36;55870.38;;;-145.95;41.42
37648;BME280;23490;53.656;10.076;2022-08-14T10:39:20;55874.47;;;-145.95;43.05
37648;BME280;23490;53.656;10.076;2022-08-14T10:41:47;55872.41;;;-145.95;44.36
37648;BME280;23490;53.656;10.076;2022-08-14T10:44:15;55792.88;;;-145.95;44.40
37648;BME280;23490;53.656;10.076;2022-08-14T10:46:45;55862.22;;;-145.95;44.29
37648;BME280;23490;53.656;10.076;2022-08-14T10:49:19;55903.00;;;-145.95;44.92
37648;BME280;23490;53.656;10.076;2022-08-14T10:52:01;55852.03;;;-145.95;45.57
37648;BME280;23490;53.656;10.076;2022-08-14T10:57:15;55845.91;;;-145.95;46.23
37648;BME280;23490;53.656;10.076;2022-08-14T10:59:56;55784.72;;;-145.95;45.78
37648;BME280;23490;53.656;10.076;2022-08-14T11:05:06;55845.91;;;-145.95;46.75
37648;BME280;23490;53.656;10.076;2022-08-14T11:07:37;55856.09;;;-145.95;46.47
37648;BME280;23490;53.656;10.076;2022-08-14T11:10:12;55807.16;;;-145.95;46.49
37648;BME280;23490;53.656;10.076;2022-08-14T11:12:44;55821.44;;;-145.95;45.54
37648;BME280;23490;53.656;10.076;2022-08-14T11:15:23;55845.91;;;-145.95;45.79
37648;BME280;23490;53.656;10.076;2022-08-14T11:17:50;55878.53;;;-145.95;45.92
37648;BME280;23490;53.656;10.076;2022-08-14T11:20:17;55854.06;;;-145.95;46.14
37648;BME280;23490;53.656;10.076;2022-08-14T11:22:44;55813.28;;;-145.95;46.00
37648;BME280;23490;53.656;10.076;2022-08-14T11:25:13;55813.28;;;-145.95;47.85
37648;BME280;23490;53.656;10.076;2022-08-14T11:27:43;55856.09;;;-145.95;47.49
37648;BME280;23490;53.656;10.076;2022-08-14T11:30:11;55825.53;;;-145.95;49.00
37648;BME280;23490;53.656;10.076;2022-08-14T11:32:40;55850.00;;;-145.95;48.57
37648;BME280;23490;53.656;10.076;2022-08-14T11:35:10;55813.28;;;-145.95;49.49
37648;BME280;23490;53.656;10.076;2022-08-14T11:37:35;55890.78;;;-145.95;48.65
37648;BME280;23490;53.656;10.076;2022-08-14T11:40:01;55856.09;;;-145.95;49.46
37648;BME280;23490;53.656;10.076;2022-08-14T11:42:28;55829.59;;;-145.95;49.13
37648;BME280;23490;53.656;10.076;2022-08-14T11:44:58;55841.84;;;-145.95;48.45
37648;BME280;23490;53.656;10.076;2022-08-14T11:47:24;55862.22;;;-145.95;48.52
37648;BME280;23490;53.656;10.076;2022-08-14T11:49:49;55817.34;;;-145.95;47.04
37648;BME280;23490;53.656;10.076;2022-08-14T11:52:15;55850.00;;;-145.95;47.13
37648;BME280;23490;53.656;10.076;2022-08-14T11:54:44;55792.88;;;-145.95;47.95
37648;BME280;23490;53.656;10.076;2022-08-14T11:57:14;55882.63;;;-145.95;47.05
37648;BME280;23490;53.656;10.076;2022-08-14T11:59:40;55825.53;;;-145.95;48.64
37648;BME280;23490;53.656;10.076;2022-08-14T12:02:14;55825.53;;;-145.95;50.30
37648;BME280;23490;53.656;10.076;2022-08-14T12:04:51;55858.16;;;-145.95;48.04
37648;BME280;23490;53.656;10.076;2022-08-14T12:07:18;55856.09;;;-145.95;47.66
37648;BME280;23490;53.656;10.076;2022-08-14T12:09:45;55813.28;;;-145.95;48.33
37648;BME280;23490;53.656;10.076;2022-08-14T12:12:14;55862.22;;;-145.95;48.09
37648;BME280;23490;53.656;10.076;2022-08-14T12:14:51;55825.53;;;-145.95;47.20
37648;BME280;23490;53.656;10.076;2022-08-14T12:17:25;55878.53;;;-145.95;47.23
37648;BME280;23490;53.656;10.076;2022-08-14T12:19:56;55847.94;;;-145.95;48.10
37648;BME280;23490;53.656;10.076;2022-08-14T12:24:59;55866.31;;;-145.95;46.62
37648;BME280;23490;53.656;10.076;2022-08-14T12:27:54;55866.31;;;-145.95;45.65
37648;BME280;23490;53.656;10.076;2022-08-14T12:30:38;55862.22;;;-145.95;46.70
37648;BME280;23490;53.656;10.076;2022-08-14T12:33:06;55850.00;;;-145.95;44.57
37648;BME280;23490;53.656;10.076;2022-08-14T12:35:43;55847.94;;;-145.95;42.38
37648;BME280;23490;53.656;10.076;2022-08-14T12:38:11;55862.22;;;-145.95;42.75
37648;BME280;23490;53.656;10.076;2022-08-14T12:40:48;55862.22;;;-145.95;41.88
37648;BME280;23490;53.656;10.076;2022-08-14T12:43:15;55870.38;;;-145.95;39.79
37648;BME280;23490;53.656;10.076;2022-08-14T12:45:50;55860.19;;;-145.95;41.15
37648;BME280;23490;53.656;10.076;2022-08-14T12:48:18;55864.25;;;-145.95;39.10
37648;BME280;23490;53.656;10.076;2022-08-14T12:50:44;55886.69;;;-145.95;39.50
37648;BME280;23490;53.656;10.076;2022-08-14T12:53:11;55866.31;;;-145.95;39.98
37648;BME280;23490;53.656;10.076;2022-08-14T12:55:38;55862.22;;;-145.95;39.87
37648;BME280;23490;53.656;10.076;2022-08-14T12:58:06;55903.00;;;-145.95;40.24
37648;BME280;23490;53.656;10.076;2022-08-14T13:00:34;55892.81;;;-145.95;39.59
37648;BME280;23490;53.656;10.076;2022-08-14T13:02:59;55850.00;;;-145.95;37.74
37648;BME280;23490;53.656;10.076;2022-08-14T13:05:28;55878.53;;;-145.95;37.91